ULMM

Murmansk Airport

Airport
ICAO code
ULMM
Summary
ICAO Region
EUR
ICAO Territory
Location

Murmashi, Murmansk,

Coordinates
68° 47' 11" N , 32° 44' 35" E
Metar
Observation
ULMM 271330Z 23002MPS CAVOK M05/M06 Q1006 R31/690145 NOSIG RMK QFE747
Station
Murmansk
Date/Time
2023-01-27 13:30:00
Wind direction
230°
Lowest cloud amount
clouds and visibility OK
Temperature
-5°C
Dew point
-6°C
Humidity
92%
QNH
1006 hPa
Weather condition
n/a

Description

Murmansk Airport is the international airport of Murmansk, Russia. It is located near the town of Murmashi in Murmansk's southern suburbs, 24 km outside the city centre.

Climatology

Subarctic climate (Köppen climate classification Dfc) - long, usually very cold winters, and short, cool to mild summers.

Runways

Designator Length Width Surface Rops
14/32 2500 45 CON Yes/Yes

Airport map

Aerial View

SKYbrary Partners:

Safety knowledge contributed by: